sensor_id;sensor_type;location;lat;lon;timestamp;pressure;altitude;pressure_sealevel;temperature;humidity
14800;BME280;7491;57.750;11.970;2024-03-22T00:00:17;76228.91;;;-142.11;100.00
14800;BME280;7491;57.750;11.970;2024-03-22T00:02:43;76251.31;;;-142.11;100.00
14800;BME280;7491;57.750;11.970;2024-03-22T00:05:09;76210.56;;;-142.11;100.00
14800;BME280;7491;57.750;11.970;2024-03-22T00:07:35;76249.28;;;-142.11;100.00
14800;BME280;7491;57.750;11.970;2024-03-22T00:10:04;76226.84;;;-142.11;100.00
14800;BME280;7491;57.750;11.970;2024-03-22T00:12:30;76237.06;;;-142.11;100.00
14800;BME280;7491;57.750;11.970;2024-03-22T00:14:58;76214.63;;;-142.11;100.00
14800;BME280;7491;57.750;11.970;2024-03-22T00:17:25;76204.44;;;-142.11;100.00
14800;BME280;7491;57.750;11.970;2024-03-22T00:19:51;76204.44;;;-142.11;100.00
14800;BME280;7491;57.750;11.970;2024-03-22T00:22:17;76210.56;;;-142.11;100.00
14800;BME280;7491;57.750;11.970;2024-03-22T00:24:45;76200.34;;;-142.11;100.00
14800;BME280;7491;57.750;11.970;2024-03-22T00:27:10;76188.13;;;-142.11;100.00
14800;BME280;7491;57.750;11.970;2024-03-22T00:29:38;76188.13;;;-142.11;100.00
14800;BME280;7491;57.750;11.970;2024-03-22T00:32:06;76167.75;;;-142.11;100.00
14800;BME280;7491;57.750;11.970;2024-03-22T00:34:33;76143.28;;;-142.11;100.00
14800;BME280;7491;57.750;11.970;2024-03-22T00:36:58;76153.47;;;-142.11;100.00
14800;BME280;7491;57.750;11.970;2024-03-22T00:39:25;76141.25;;;-142.11;100.00
14800;BME280;7491;57.750;11.970;2024-03-22T00:41:51;76145.31;;;-142.11;100.00
14800;BME280;7491;57.750;11.970;2024-03-22T00:44:17;76122.91;;;-142.11;100.00
14800;BME280;7491;57.750;11.970;2024-03-22T00:46:43;76135.13;;;-142.11;100.00
14800;BME280;7491;57.750;11.970;2024-03-22T00:49:11;76126.97;;;-142.11;100.00
14800;BME280;7491;57.750;11.970;2024-03-22T00:51:38;76108.63;;;-142.11;100.00
14800;BME280;7491;57.750;11.970;2024-03-22T00:54:05;76108.63;;;-142.11;100.00
14800;BME280;7491;57.750;11.970;2024-03-22T00:56:30;76106.59;;;-142.11;100.00
14800;BME280;7491;57.750;11.970;2024-03-22T00:58:57;76116.78;;;-142.11;100.00
14800;BME280;7491;57.750;11.970;2024-03-22T01:01:23;76100.47;;;-142.11;100.00
14800;BME280;7491;57.750;11.970;2024-03-22T01:03:49;76098.44;;;-142.11;100.00
14800;BME280;7491;57.750;11.970;2024-03-22T01:06:16;76108.63;;;-142.11;100.00
14800;BME280;7491;57.750;11.970;2024-03-22T01:08:48;76104.56;;;-142.11;100.00
14800;BME280;7491;57.750;11.970;2024-03-22T01:11:14;76080.09;;;-142.11;100.00
14800;BME280;7491;57.750;11.970;2024-03-22T01:13:41;76088.25;;;-142.11;100.00
14800;BME280;7491;57.750;11.970;2024-03-22T01:16:06;76084.16;;;-142.11;100.00
14800;BME280;7491;57.750;11.970;2024-03-22T01:18:35;76067.84;;;-142.11;100.00
14800;BME280;7491;57.750;11.970;2024-03-22T01:21:00;76071.94;;;-142.11;100.00
14800;BME280;7491;57.750;11.970;2024-03-22T01:23:28;76039.31;;;-142.11;100.00
14800;BME280;7491;57.750;11.970;2024-03-22T01:25:54;76047.47;;;-142.11;100.00
14800;BME280;7491;57.750;11.970;2024-03-22T01:28:21;76047.47;;;-142.11;100.00
14800;BME280;7491;57.750;11.970;2024-03-22T01:30:46;76057.66;;;-142.11;100.00
14800;BME280;7491;57.750;11.970;2024-03-22T01:33:13;76041.34;;;-142.11;100.00
14800;BME280;7491;57.750;11.970;2024-03-22T01:35:39;76051.56;;;-142.11;100.00
14800;BME280;7491;57.750;11.970;2024-03-22T01:38:06;76027.09;;;-142.11;100.00
14800;BME280;7491;57.750;11.970;2024-03-22T01:40:33;76033.22;;;-142.11;100.00
14800;BME280;7491;57.750;11.970;2024-03-22T01:43:00;76031.16;;;-142.11;100.00
14800;BME280;7491;57.750;11.970;2024-03-22T01:45:25;76006.72;;;-142.11;100.00
14800;BME280;7491;57.750;11.970;2024-03-22T01:47:52;76010.78;;;-142.11;100.00
14800;BME280;7491;57.750;11.970;2024-03-22T01:50:19;75992.44;;;-142.11;100.00
14800;BME280;7491;57.750;11.970;2024-03-22T01:52:47;75992.44;;;-142.11;100.00
14800;BME280;7491;57.750;11.970;2024-03-22T01:55:13;75996.50;;;-142.11;100.00
14800;BME280;7491;57.750;11.970;2024-03-22T01:57:41;75998.56;;;-142.11;100.00
14800;BME280;7491;57.750;11.970;2024-03-22T02:00:08;75963.91;;;-142.11;100.00
14800;BME280;7491;57.750;11.970;2024-03-22T02:02:35;75963.91;;;-142.11;100.00
14800;BME280;7491;57.750;11.970;2024-03-22T02:05:11;75947.59;;;-142.11;100.00
14800;BME280;7491;57.750;11.970;2024-03-22T02:07:38;75947.59;;;-142.11;100.00
14800;BME280;7491;57.750;11.970;2024-03-22T02:10:04;75941.47;;;-142.11;100.00
14800;BME280;7491;57.750;11.970;2024-03-22T02:12:33;75949.63;;;-142.11;100.00
14800;BME280;7491;57.750;11.970;2024-03-22T02:15:01;75949.63;;;-142.11;100.00
14800;BME280;7491;57.750;11.970;2024-03-22T02:17:28;75925.16;;;-142.11;100.00
14800;BME280;7491;57.750;11.970;2024-03-22T02:19:55;75923.13;;;-142.11;100.00
14800;BME280;7491;57.750;11.970;2024-03-22T02:22:22;75906.81;;;-142.11;100.00
14800;BME280;7491;57.750;11.970;2024-03-22T02:24:49;75929.25;;;-142.11;100.00
14800;BME280;7491;57.750;11.970;2024-03-22T02:27:16;75917.00;;;-142.11;100.00
14800;BME280;7491;57.750;11.970;2024-03-22T02:29:41;75919.06;;;-142.11;100.00
14800;BME280;7491;57.750;11.970;2024-03-22T02:32:09;75927.22;;;-142.11;100.00
14800;BME280;7491;57.750;11.970;2024-03-22T02:34:35;75929.25;;;-142.11;100.00
14800;BME280;7491;57.750;11.970;2024-03-22T02:37:02;75888.47;;;-142.11;100.00
14800;BME280;7491;57.750;11.970;2024-03-22T02:39:27;75878.28;;;-142.11;100.00
14800;BME280;7491;57.750;11.970;2024-03-22T02:41:56;75870.13;;;-142.11;100.00
14800;BME280;7491;57.750;11.970;2024-03-22T02:44:22;75888.47;;;-142.11;100.00
14800;BME280;7491;57.750;11.970;2024-03-22T02:46:48;75884.41;;;-142.11;100.00
14800;BME280;7491;57.750;11.970;2024-03-22T02:49:14;75878.28;;;-142.11;100.00
14800;BME280;7491;57.750;11.970;2024-03-22T02:51:41;75855.88;;;-142.11;100.00
14800;BME280;7491;57.750;11.970;2024-03-22T02:54:07;75857.91;;;-142.11;100.00
14800;BME280;7491;57.750;11.970;2024-03-22T02:56:33;75857.91;;;-142.11;100.00
14800;BME280;7491;57.750;11.970;2024-03-22T02:59:00;75864.03;;;-142.11;100.00
14800;BME280;7491;57.750;11.970;2024-03-22T03:01:27;75851.78;;;-142.11;100.00
14800;BME280;7491;57.750;11.970;2024-03-22T03:03:53;75837.53;;;-142.11;100.00
14800;BME280;7491;57.750;11.970;2024-03-22T03:06:19;75839.56;;;-142.11;100.00
14800;BME280;7491;57.750;11.970;2024-03-22T03:08:45;75827.34;;;-142.11;100.00
14800;BME280;7491;57.750;11.970;2024-03-22T03:11:14;75811.03;;;-142.11;100.00
14800;BME280;7491;57.750;11.970;2024-03-22T03:13:40;75815.09;;;-142.11;100.00
14800;BME280;7491;57.750;11.970;2024-03-22T03:16:08;75804.91;;;-142.11;100.00
14800;BME280;7491;57.750;11.970;2024-03-22T03:18:34;75790.63;;;-142.11;100.00
14800;BME280;7491;57.750;11.970;2024-03-22T03:21:00;75813.06;;;-142.11;100.00
14800;BME280;7491;57.750;11.970;2024-03-22T03:23:26;75802.88;;;-142.11;100.00
14800;BME280;7491;57.750;11.970;2024-03-22T03:25:53;75800.84;;;-142.11;100.00
14800;BME280;7491;57.750;11.970;2024-03-22T03:28:18;75808.97;;;-142.11;100.00
14800;BME280;7491;57.750;11.970;2024-03-22T03:30:45;75788.59;;;-142.11;100.00
14800;BME280;7491;57.750;11.970;2024-03-22T03:33:12;75786.56;;;-142.11;100.00
14800;BME280;7491;57.750;11.970;2024-03-22T03:35:39;75780.44;;;-142.11;100.00
14800;BME280;7491;57.750;11.970;2024-03-22T03:38:04;75798.78;;;-142.11;100.00
14800;BME280;7491;57.750;11.970;2024-03-22T03:40:31;75788.59;;;-142.11;100.00
14800;BME280;7491;57.750;11.970;2024-03-22T03:42:57;75784.53;;;-142.11;100.00
14800;BME280;7491;57.750;11.970;2024-03-22T03:45:23;75782.50;;;-142.11;100.00
14800;BME280;7491;57.750;11.970;2024-03-22T03:47:49;75768.22;;;-142.11;100.00
14800;BME280;7491;57.750;11.970;2024-03-22T03:50:17;75770.25;;;-142.11;100.00
14800;BME280;7491;57.750;11.970;2024-03-22T03:52:43;75756.00;;;-142.11;100.00
14800;BME280;7491;57.750;11.970;2024-03-22T03:55:10;75758.03;;;-142.11;100.00
14800;BME280;7491;57.750;11.970;2024-03-22T03:57:35;75741.72;;;-142.11;100.00
14800;BME280;7491;57.750;11.970;2024-03-22T04:00:02;75745.81;;;-142.11;100.00
14800;BME280;7491;57.750;11.970;2024-03-22T04:02:28;75753.94;;;-142.11;100.00
14800;BME280;7491;57.750;11.970;2024-03-22T04:04:55;75735.59;;;-142.11;100.00
14800;BME280;7491;57.750;11.970;2024-03-22T04:07:22;75741.72;;;-142.11;100.00
14800;BME280;7491;57.750;11.970;2024-03-22T04:09:48;75715.22;;;-142.11;100.00
14800;BME280;7491;57.750;11.970;2024-03-22T04:12:14;75715.22;;;-142.11;100.00
14800;BME280;7491;57.750;11.970;2024-03-22T04:14:41;75721.34;;;-142.11;100.00
14800;BME280;7491;57.750;11.970;2024-03-22T04:17:07;75707.06;;;-142.11;100.00
14800;BME280;7491;57.750;11.970;2024-03-22T04:19:33;75721.34;;;-142.11;100.00
14800;BME280;7491;57.750;11.970;2024-03-22T04:21:59;75719.31;;;-142.11;100.00
14800;BME280;7491;57.750;11.970;2024-03-22T04:24:27;75713.19;;;-142.11;100.00
14800;BME280;7491;57.750;11.970;2024-03-22T04:26:53;75678.53;;;-142.11;100.00
14800;BME280;7491;57.750;11.970;2024-03-22T04:29:19;75682.63;;;-142.11;100.00
14800;BME280;7491;57.750;11.970;2024-03-22T04:31:45;75676.50;;;-142.11;100.00
14800;BME280;7491;57.750;11.970;2024-03-22T04:34:12;75696.88;;;-142.11;100.00
14800;BME280;7491;57.750;11.970;2024-03-22T04:36:38;75664.28;;;-142.11;100.00
14800;BME280;7491;57.750;11.970;2024-03-22T04:39:04;75670.38;;;-142.11;100.00
14800;BME280;7491;57.750;11.970;2024-03-22T04:41:32;75668.34;;;-142.11;100.00
14800;BME280;7491;57.750;11.970;2024-03-22T04:43:58;75668.34;;;-142.11;100.00
14800;BME280;7491;57.750;11.970;2024-03-22T04:46:24;75654.06;;;-142.11;100.00
14800;BME280;7491;57.750;11.970;2024-03-22T04:48:50;75658.16;;;-142.11;100.00
14800;BME280;7491;57.750;11.970;2024-03-22T04:51:17;75650.00;;;-142.11;100.00
14800;BME280;7491;57.750;11.970;2024-03-22T04:53:43;75645.94;;;-142.11;100.00
14800;BME280;7491;57.750;11.970;2024-03-22T04:56:10;75645.94;;;-142.11;100.00
14800;BME280;7491;57.750;11.970;2024-03-22T04:58:37;75645.94;;;-142.11;100.00
14800;BME280;7491;57.750;11.970;2024-03-22T05:01:04;75623.50;;;-142.11;100.00
14800;BME280;7491;57.750;11.970;2024-03-22T05:03:29;75631.66;;;-142.11;100.00
14800;BME280;7491;57.750;11.970;2024-03-22T05:05:56;75613.31;;;-142.11;100.00
14800;BME280;7491;57.750;11.970;2024-03-22T05:08:22;75617.38;;;-142.11;100.00
14800;BME280;7491;57.750;11.970;2024-03-22T05:10:49;75613.31;;;-142.11;100.00
14800;BME280;7491;57.750;11.970;2024-03-22T05:13:15;75611.28;;;-142.11;100.00
14800;BME280;7491;57.750;11.970;2024-03-22T05:15:44;75609.25;;;-142.11;100.00
14800;BME280;7491;57.750;11.970;2024-03-22T05:18:09;75605.16;;;-142.11;100.00
14800;BME280;7491;57.750;11.970;2024-03-22T05:20:36;75609.25;;;-142.11;100.00
14800;BME280;7491;57.750;11.970;2024-03-22T05:23:02;75597.00;;;-142.11;100.00
14800;BME280;7491;57.750;11.970;2024-03-22T05:25:29;75609.25;;;-142.11;100.00
14800;BME280;7491;57.750;11.970;2024-03-22T05:27:55;75597.00;;;-142.11;100.00
14800;BME280;7491;57.750;11.970;2024-03-22T05:30:21;75592.94;;;-142.11;100.00
14800;BME280;7491;57.750;11.970;2024-03-22T05:32:49;75592.94;;;-142.11;100.00
14800;BME280;7491;57.750;11.970;2024-03-22T05:35:16;75576.63;;;-142.11;100.00
14800;BME280;7491;57.750;11.970;2024-03-22T05:37:41;75586.81;;;-142.11;100.00
14800;BME280;7491;57.750;11.970;2024-03-22T05:40:09;75560.31;;;-142.11;100.00
14800;BME280;7491;57.750;11.970;2024-03-22T05:42:35;75572.56;;;-142.11;100.00
14800;BME280;7491;57.750;11.970;2024-03-22T05:45:02;75580.69;;;-142.11;100.00
14800;BME280;7491;57.750;11.970;2024-03-22T05:47:28;75590.91;;;-142.11;100.00
14800;BME280;7491;57.750;11.970;2024-03-22T05:49:57;75574.59;;;-142.11;100.00
14800;BME280;7491;57.750;11.970;2024-03-22T05:52:23;75572.56;;;-142.11;100.00
14800;BME280;7491;57.750;11.970;2024-03-22T05:54:50;75578.66;;;-142.11;100.00
14800;BME280;7491;57.750;11.970;2024-03-22T05:57:16;75582.75;;;-142.11;100.00
14800;BME280;7491;57.750;11.970;2024-03-22T05:59:43;75576.63;;;-142.11;100.00
14800;BME280;7491;57.750;11.970;2024-03-22T06:02:09;75570.50;;;-142.11;100.00
14800;BME280;7491;57.750;11.970;2024-03-22T06:04:37;75570.50;;;-142.11;100.00
14800;BME280;7491;57.750;11.970;2024-03-22T06:07:04;75560.31;;;-142.11;100.00
14800;BME280;7491;57.750;11.970;2024-03-22T06:09:32;75550.13;;;-142.11;100.00
14800;BME280;7491;57.750;11.970;2024-03-22T06:12:03;75539.94;;;-142.11;100.00
14800;BME280;7491;57.750;11.970;2024-03-22T06:14:33;75539.94;;;-142.11;100.00
14800;BME280;7491;57.750;11.970;2024-03-22T06:16:59;75541.97;;;-142.11;100.00
14800;BME280;7491;57.750;11.970;2024-03-22T06:19:29;75521.59;;;-142.11;100.00
14800;BME280;7491;57.750;11.970;2024-03-22T06:21:55;75517.53;;;-142.11;100.00
14800;BME280;7491;57.750;11.970;2024-03-22T06:24:26;75507.34;;;-142.11;100.00
14800;BME280;7491;57.750;11.970;2024-03-22T06:26:52;75519.56;;;-142.11;100.00
14800;BME280;7491;57.750;11.970;2024-03-22T06:29:20;75507.34;;;-142.11;100.00
14800;BME280;7491;57.750;11.970;2024-03-22T06:31:45;75511.41;;;-142.11;100.00
14800;BME280;7491;57.750;11.970;2024-03-22T06:34:12;75503.25;;;-142.11;100.00
14800;BME280;7491;57.750;11.970;2024-03-22T06:36:38;75484.91;;;-142.11;100.00
14800;BME280;7491;57.750;11.970;2024-03-22T06:39:05;75509.38;;;-142.11;100.00
14800;BME280;7491;57.750;11.970;2024-03-22T06:41:39;75474.72;;;-142.11;100.00
14800;BME280;7491;57.750;11.970;2024-03-22T06:44:08;75480.84;;;-142.11;100.00
14800;BME280;7491;57.750;11.970;2024-03-22T06:46:45;75476.75;;;-142.11;100.00
14800;BME280;7491;57.750;11.970;2024-03-22T06:51:48;75486.94;;;-142.11;100.00
14800;BME280;7491;57.750;11.970;2024-03-22T06:54:23;75470.66;;;-142.11;100.00
14800;BME280;7491;57.750;11.970;2024-03-22T06:56:51;75456.38;;;-142.11;100.00
14800;BME280;7491;57.750;11.970;2024-03-22T06:59:20;75495.09;;;-142.11;100.00
14800;BME280;7491;57.750;11.970;2024-03-22T07:01:46;75454.34;;;-142.11;100.00
14800;BME280;7491;57.750;11.970;2024-03-22T07:04:13;75454.34;;;-142.11;100.00
14800;BME280;7491;57.750;11.970;2024-03-22T07:06:42;75442.13;;;-142.11;100.00
14800;BME280;7491;57.750;11.970;2024-03-22T07:09:09;75472.69;;;-142.11;100.00
14800;BME280;7491;57.750;11.970;2024-03-22T07:11:46;75458.41;;;-142.11;100.00
14800;BME280;7491;57.750;11.970;2024-03-22T07:14:15;75460.44;;;-142.11;100.00
14800;BME280;7491;57.750;11.970;2024-03-22T07:16:43;75444.16;;;-142.11;100.00
14800;BME280;7491;57.750;11.970;2024-03-22T07:19:11;75436.00;;;-142.11;100.00
14800;BME280;7491;57.750;11.970;2024-03-22T07:21:46;75436.00;;;-142.11;100.00
14800;BME280;7491;57.750;11.970;2024-03-22T07:24:22;75438.03;;;-142.11;100.00
14800;BME280;7491;57.750;11.970;2024-03-22T07:26:49;75429.88;;;-142.11;100.00
14800;BME280;7491;57.750;11.970;2024-03-22T07:29:17;75431.91;;;-142.11;100.00
14800;BME280;7491;57.750;11.970;2024-03-22T07:31:43;75433.97;;;-142.11;100.00
14800;BME280;7491;57.750;11.970;2024-03-22T07:34:15;75438.03;;;-142.11;100.00
14800;BME280;7491;57.750;11.970;2024-03-22T07:36:41;75438.03;;;-142.11;100.00
14800;BME280;7491;57.750;11.970;2024-03-22T07:39:08;75429.88;;;-142.11;100.00
14800;BME280;7491;57.750;11.970;2024-03-22T07:41:35;75440.06;;;-142.11;100.00
14800;BME280;7491;57.750;11.970;2024-03-22T07:44:02;75427.84;;;-142.11;100.00
14800;BME280;7491;57.750;11.970;2024-03-22T07:46:32;75405.44;;;-142.11;100.00
14800;BME280;7491;57.750;11.970;2024-03-22T07:49:05;75405.44;;;-142.11;100.00
14800;BME280;7491;57.750;11.970;2024-03-22T07:51:37;75421.72;;;-142.11;100.00
14800;BME280;7491;57.750;11.970;2024-03-22T07:54:04;75419.69;;;-142.11;100.00
14800;BME280;7491;57.750;11.970;2024-03-22T07:56:33;75423.78;;;-142.11;100.00
14800;BME280;7491;57.750;11.970;2024-03-22T07:59:08;75423.78;;;-142.11;100.00
14800;BME280;7491;57.750;11.970;2024-03-22T08:01:36;75417.66;;;-142.11;100.00
14800;BME280;7491;57.750;11.970;2024-03-22T08:04:06;75413.56;;;-142.11;100.00
14800;BME280;7491;57.750;11.970;2024-03-22T08:06:32;75403.38;;;-142.11;100.00
14800;BME280;7491;57.750;11.970;2024-03-22T08:08:59;75425.81;;;-142.11;100.00
14800;BME280;7491;57.750;11.970;2024-03-22T08:11:26;75433.97;;;-142.11;100.00
14800;BME280;7491;57.750;11.970;2024-03-22T08:13:53;75409.50;;;-142.11;100.00
14800;BME280;7491;57.750;11.970;2024-03-22T08:16:35;75413.56;;;-142.11;100.00
14800;BME280;7491;57.750;11.970;2024-03-22T08:19:04;75403.38;;;-142.11;100.00
14800;BME280;7491;57.750;11.970;2024-03-22T08:21:47;75421.72;;;-142.11;100.00
14800;BME280;7491;57.750;11.970;2024-03-22T08:24:14;75409.50;;;-142.11;100.00
14800;BME280;7491;57.750;11.970;2024-03-22T08:26:40;75425.81;;;-142.11;100.00
14800;BME280;7491;57.750;11.970;2024-03-22T08:29:11;75419.69;;;-142.11;100.00
14800;BME280;7491;57.750;11.970;2024-03-22T08:31:37;75411.53;;;-142.11;100.00
14800;BME280;7491;57.750;11.970;2024-03-22T08:34:05;75423.78;;;-142.11;100.00
14800;BME280;7491;57.750;11.970;2024-03-22T08:36:31;75419.69;;;-142.11;100.00
14800;BME280;7491;57.750;11.970;2024-03-22T08:38:58;75429.88;;;-142.11;100.00
14800;BME280;7491;57.750;11.970;2024-03-22T08:41:23;75433.97;;;-142.11;100.00
14800;BME280;7491;57.750;11.970;2024-03-22T08:43:50;75423.78;;;-142.11;100.00
14800;BME280;7491;57.750;11.970;2024-03-22T08:46:16;75425.81;;;-142.11;100.00
14800;BME280;7491;57.750;11.970;2024-03-22T08:48:43;75415.63;;;-142.11;100.00
14800;BME280;7491;57.750;11.970;2024-03-22T08:51:10;75423.78;;;-142.11;100.00
14800;BME280;7491;57.750;11.970;2024-03-22T08:53:36;75421.72;;;-142.11;100.00
14800;BME280;7491;57.750;11.970;2024-03-22T08:56:03;75405.44;;;-142.11;100.00
14800;BME280;7491;57.750;11.970;2024-03-22T08:58:30;75415.63;;;-142.11;100.00
14800;BME280;7491;57.750;11.970;2024-03-22T09:00:55;75427.84;;;-142.11;100.00
14800;BME280;7491;57.750;11.970;2024-03-22T09:03:22;75409.50;;;-142.11;100.00
14800;BME280;7491;57.750;11.970;2024-03-22T09:05:52;75427.84;;;-142.11;100.00
14800;BME280;7491;57.750;11.970;2024-03-22T09:08:20;75429.88;;;-142.11;100.00
14800;BME280;7491;57.750;11.970;2024-03-22T09:10:48;75415.63;;;-142.11;100.00
14800;BME280;7491;57.750;11.970;2024-03-22T09:13:13;75433.97;;;-142.11;100.00
14800;BME280;7491;57.750;11.970;2024-03-22T09:15:41;75421.72;;;-142.11;100.00
14800;BME280;7491;57.750;11.970;2024-03-22T09:18:06;75405.44;;;-142.11;100.00
14800;BME280;7491;57.750;11.970;2024-03-22T09:20:33;75383.00;;;-142.11;100.00
14800;BME280;7491;57.750;11.970;2024-03-22T09:22:59;75397.28;;;-142.11;100.00
14800;BME280;7491;57.750;11.970;2024-03-22T09:25:29;75378.94;;;-142.11;100.00
14800;BME280;7491;57.750;11.970;2024-03-22T09:27:59;75391.16;;;-142.11;100.00
14800;BME280;7491;57.750;11.970;2024-03-22T09:30:28;75401.34;;;-142.11;100.00
14800;BME280;7491;57.750;11.970;2024-03-22T09:32:54;75395.25;;;-142.11;100.00
14800;BME280;7491;57.750;11.970;2024-03-22T09:35:30;75366.72;;;-142.11;100.00
14800;BME280;7491;57.750;11.970;2024-03-22T09:38:05;75393.19;;;-142.11;100.00
14800;BME280;7491;57.750;11.970;2024-03-22T09:40:34;75395.25;;;-142.11;100.00
14800;BME280;7491;57.750;11.970;2024-03-22T09:43:02;75385.03;;;-142.11;100.00
14800;BME280;7491;57.750;11.970;2024-03-22T09:45:29;75393.19;;;-142.11;100.00
14800;BME280;7491;57.750;11.970;2024-03-22T09:47:57;75393.19;;;-142.11;100.00
14800;BME280;7491;57.750;11.970;2024-03-22T09:50:25;75372.81;;;-142.11;100.00
14800;BME280;7491;57.750;11.970;2024-03-22T09:52:52;75354.47;;;-142.11;100.00
14800;BME280;7491;57.750;11.970;2024-03-22T09:55:22;75360.59;;;-142.11;100.00
14800;BME280;7491;57.750;11.970;2024-03-22T09:57:50;75346.31;;;-142.11;100.00
14800;BME280;7491;57.750;11.970;2024-03-22T10:00:22;75352.44;;;-142.11;100.00
14800;BME280;7491;57.750;11.970;2024-03-22T10:03:01;75354.47;;;-142.11;100.00
14800;BME280;7491;57.750;11.970;2024-03-22T10:05:30;75354.47;;;-142.11;100.00
14800;BME280;7491;57.750;11.970;2024-03-22T10:08:03;75321.88;;;-142.11;100.00
14800;BME280;7491;57.750;11.970;2024-03-22T10:10:31;75319.81;;;-142.11;100.00
14800;BME280;7491;57.750;11.970;2024-03-22T10:13:03;75291.31;;;-142.11;100.00
14800;BME280;7491;57.750;11.970;2024-03-22T10:15:34;75279.06;;;-142.11;100.00
14800;BME280;7491;57.750;11.970;2024-03-22T10:18:00;75270.91;;;-142.11;100.00
14800;BME280;7491;57.750;11.970;2024-03-22T10:20:27;75283.16;;;-142.11;100.00
14800;BME280;7491;57.750;11.970;2024-03-22T10:22:58;75262.75;;;-142.11;100.00
14800;BME280;7491;57.750;11.970;2024-03-22T10:25:26;75254.63;;;-142.11;100.00
14800;BME280;7491;57.750;11.970;2024-03-22T10:27:54;75272.97;;;-142.11;100.00
14800;BME280;7491;57.750;11.970;2024-03-22T10:30:23;75250.53;;;-142.11;100.00
14800;BME280;7491;57.750;11.970;2024-03-22T10:32:53;75250.53;;;-142.11;100.00
14800;BME280;7491;57.750;11.970;2024-03-22T10:35:20;75250.53;;;-142.11;100.00
14800;BME280;7491;57.750;11.970;2024-03-22T10:37:47;75230.16;;;-142.11;100.00
14800;BME280;7491;57.750;11.970;2024-03-22T10:42:52;75224.03;;;-142.11;100.00
14800;BME280;7491;57.750;11.970;2024-03-22T10:45:19;75199.59;;;-142.11;100.00
14800;BME280;7491;57.750;11.970;2024-03-22T10:47:49;75183.28;;;-142.11;100.00
14800;BME280;7491;57.750;11.970;2024-03-22T10:50:20;75199.59;;;-142.11;100.00
14800;BME280;7491;57.750;11.970;2024-03-22T10:52:50;75205.72;;;-142.11;100.00
14800;BME280;7491;57.750;11.970;2024-03-22T10:55:24;75197.56;;;-142.11;100.00
14800;BME280;7491;57.750;11.970;2024-03-22T10:58:05;75183.28;;;-142.11;100.00
14800;BME280;7491;57.750;11.970;2024-03-22T11:00:35;75175.13;;;-142.11;100.00
14800;BME280;7491;57.750;11.970;2024-03-22T11:03:04;75175.13;;;-142.11;100.00
14800;BME280;7491;57.750;11.970;2024-03-22T11:05:31;75171.06;;;-142.11;100.00
14800;BME280;7491;57.750;11.970;2024-03-22T11:08:00;75179.22;;;-142.11;100.00
14800;BME280;7491;57.750;11.970;2024-03-22T11:10:30;75154.75;;;-142.11;100.00
14800;BME280;7491;57.750;11.970;2024-03-22T11:13:00;75179.22;;;-142.11;100.00
14800;BME280;7491;57.750;11.970;2024-03-22T11:15:28;75183.28;;;-142.11;100.00
14800;BME280;7491;57.750;11.970;2024-03-22T11:17:54;75162.91;;;-142.11;100.00
14800;BME280;7491;57.750;11.970;2024-03-22T11:20:22;75166.97;;;-142.11;100.00
14800;BME280;7491;57.750;11.970;2024-03-22T11:22:48;75185.31;;;-142.11;100.00
14800;BME280;7491;57.750;11.970;2024-03-22T11:25:28;75195.50;;;-142.11;100.00
14800;BME280;7491;57.750;11.970;2024-03-22T11:27:54;75162.91;;;-142.11;100.00
14800;BME280;7491;57.750;11.970;2024-03-22T11:30:23;75154.75;;;-142.11;100.00
14800;BME280;7491;57.750;11.970;2024-03-22T11:32:49;75128.25;;;-142.11;100.00
14800;BME280;7491;57.750;11.970;2024-03-22T11:35:16;75103.81;;;-142.11;100.00
14800;BME280;7491;57.750;11.970;2024-03-22T11:37:43;75132.34;;;-142.11;100.00
14800;BME280;7491;57.750;11.970;2024-03-22T11:40:11;75114.00;;;-142.11;100.00
14800;BME280;7491;57.750;11.970;2024-03-22T11:42:38;75091.59;;;-142.11;100.00
14800;BME280;7491;57.750;11.970;2024-03-22T11:45:06;75085.47;;;-142.11;100.00
14800;BME280;7491;57.750;11.970;2024-03-22T11:47:34;75063.06;;;-142.11;100.00
14800;BME280;7491;57.750;11.970;2024-03-22T11:50:01;75058.97;;;-142.11;100.00
14800;BME280;7491;57.750;11.970;2024-03-22T11:52:27;75056.94;;;-142.11;100.00
14800;BME280;7491;57.750;11.970;2024-03-22T11:54:56;75067.13;;;-142.11;100.00
14800;BME280;7491;57.750;11.970;2024-03-22T11:57:22;75050.81;;;-142.11;100.00
14800;BME280;7491;57.750;11.970;2024-03-22T11:59:50;75058.97;;;-142.11;100.00
14800;BME280;7491;57.750;11.970;2024-03-22T12:02:16;75046.75;;;-142.11;100.00
14800;BME280;7491;57.750;11.970;2024-03-22T12:04:45;75024.34;;;-142.11;100.00
14800;BME280;7491;57.750;11.970;2024-03-22T12:07:13;75050.81;;;-142.11;100.00
14800;BME280;7491;57.750;11.970;2024-03-22T12:09:39;75046.75;;;-142.11;100.00
14800;BME280;7491;57.750;11.970;2024-03-22T12:12:08;75022.28;;;-142.11;100.00
14800;BME280;7491;57.750;11.970;2024-03-22T12:14:35;75038.59;;;-142.11;100.00
14800;BME280;7491;57.750;11.970;2024-03-22T12:17:01;75032.47;;;-142.11;100.00
14800;BME280;7491;57.750;11.970;2024-03-22T12:19:27;75038.59;;;-142.11;100.00
14800;BME280;7491;57.750;11.970;2024-03-22T12:21:54;75012.09;;;-142.11;100.00
14800;BME280;7491;57.750;11.970;2024-03-22T12:24:20;74999.88;;;-142.11;100.00
14800;BME280;7491;57.750;11.970;2024-03-22T12:26:47;74957.09;;;-142.11;100.00
14800;BME280;7491;57.750;11.970;2024-03-22T12:29:15;74959.13;;;-142.11;100.00
14800;BME280;7491;57.750;11.970;2024-03-22T12:31:42;74950.97;;;-142.11;100.00
14800;BME280;7491;57.750;11.970;2024-03-22T12:34:08;74975.44;;;-142.11;100.00
14800;BME280;7491;57.750;11.970;2024-03-22T12:36:34;74969.31;;;-142.11;100.00